Kirkland, WA

12:10 PM PDT on August 23, 2014 (GMT -0700)
Norway Vista | Change Station
CLOSE
Current Station
Personal Weather Station
Location: Bothell, WA
Elevation: 213 ft
Nearby Weather Stations

Elev 213 ft 47.73 °N, 122.20 °W | Updated 4 minutes ago

Clear
Clear
80.4 °F
Feels Like 80 °F
N
0.0
Wind Variable Wind from North
Gusts 0.0 mph

Today
High -- | Low -- °F
--% Chance of Precip.
Yesterday
High -- | Low -- °F
Precip. -- in
6:15 AM 8:06 PM
Waning Crescent, 3% visible
Pressure 30.12 in
Visibility 10.0 miles
Clouds Clear
Heat Index 80 °F
Dew Point 51 °F
Humidity 36%
Rainfall -999.00 in
Snow Depth Not available.
UV 8 out of 12
Pollen 3.60 out of 12
Air Quality Not available.
Flu Activity Not available.
METAR KBFI 231853Z VRB03KT 10SM CLR 24/13 A3012 RMK AO2 SLP200 T02390133

More Conditions Fewer Conditions

Pressure 30.12 in
Visibility 10.0 miles
Clouds Clear
Heat Index 80 °F
Dew Point 51 °F
Humidity 36%
Rainfall -999.00 in
Snow Depth Not available.
UV 8 out of 12
Pollen 3.60 out of 12
Air Quality Not available.
Flu Activity Not available.
METAR KBFI 231853Z VRB03KT 10SM CLR 24/13 A3012 RMK AO2 SLP200 T02390133

More Conditions Fewer Conditions

10-Day Weather Forecast

Almanac

Astronomy

Aug. 23, 2014 Rise Set
Actual Time 6:15 AM PDT 8:06 PM PDT
Civil Twilight 5:42 AM PDT 8:39 PM PDT
Nautical Twilight 5:01 AM PDT 9:19 PM PDT
Astronomical Twilight 4:16 AM PDT 10:04 PM PDT
Moon 4:33 AM PDT 6:54 PM PDT
Length of Visible Light 14h 57m
Length of Day
13h 51m
Tomorrow will be 3m 13s shorter.
Waning Crescent, 3% of the Moon is Illuminated
Today
Waning Crescent
Aug 25
New
Sep 2
First Quarter
Sep 8
Full
Sep 15
Last Quarter

Today's Extremes

State Highs State Lows

Community

WunderPhotos

Upload Photos

1,746,585 photos uploaded!

WunderBlogs® & News

Nearby

Snow Depth

Station Depth Elevation
Dungeness 0 in 4100 ft
Meadows Pass 0 in 3500 ft
Lyman Lake 1 in 5900 ft
White Pass E.S. 0 in 4500 ft
Grouse Camp 0 in 5380 ft

Earthquake Activity

City Distance Mag. Time & Date
No recent earthquake activity has been reported nearby.
Minimum magnitude displayed is 2.5.

Coastal Water Temperatures

Place Temperature
Port Townsend, WA 53.1 °F
Seattle, WA 57.9 °F
Friday Harbor, WA 54.0 °F
Tacoma, WA 55.9 °F

Nearby Weather Stations